createdAt,value
2022-08-23T03:38:31.547Z,79.30
2022-08-23T03:41:00.676Z,80.20
2022-08-23T03:43:29.165Z,80.60
2022-08-23T03:45:57.213Z,81.10
2022-08-23T03:48:25.371Z,81.30
2022-08-23T03:50:54.702Z,82.20
2022-08-23T03:53:24.337Z,81.50
2022-08-23T03:55:55.557Z,81.70
2022-08-23T03:58:23.853Z,81.60
2022-08-23T04:00:51.757Z,81.10
2022-08-23T04:03:19.371Z,81.30
2022-08-23T04:06:04.806Z,81.20
2022-08-23T04:08:34.572Z,81.40
2022-08-23T04:11:05.018Z,81.60
2022-08-23T04:13:33.554Z,82.20
2022-08-23T04:16:05.188Z,82.60
2022-08-23T04:18:34.224Z,82.80
2022-08-23T04:21:10.738Z,83.00
2022-08-23T04:23:39.948Z,83.30
2022-08-23T04:26:09.956Z,83.60
2022-08-23T04:28:39.173Z,83.70
2022-08-23T04:31:07.213Z,83.80
2022-08-23T04:33:35.948Z,84.00
2022-08-23T04:36:09.751Z,84.10
2022-08-23T04:38:37.859Z,83.70
2022-08-23T04:41:25.927Z,83.90
2022-08-23T04:43:57.114Z,84.40
2022-08-23T04:46:29.781Z,84.60
2022-08-23T04:49:00.881Z,85.00
2022-08-23T04:51:29.528Z,84.90
2022-08-23T04:53:57.359Z,85.20
2022-08-23T04:56:50.885Z,85.30
2022-08-23T04:59:21.037Z,85.40
2022-08-23T05:04:18.181Z,84.10
2022-08-23T05:06:46.752Z,83.80
2022-08-23T05:09:19.832Z,83.20
2022-08-23T05:11:49.642Z,82.80
2022-08-23T05:14:18.416Z,82.70
2022-08-23T05:16:46.747Z,82.50
2022-08-23T05:19:15.000Z,82.30
2022-08-23T05:21:45.568Z,82.50
2022-08-23T05:24:14.015Z,82.10
2022-08-23T05:26:43.740Z,83.00
2022-08-23T05:29:11.549Z,82.40
2022-08-23T05:31:46.347Z,82.20
2022-08-23T05:34:22.515Z,81.70
2022-08-23T05:36:56.623Z,81.80
2022-08-23T05:39:36.988Z,82.30
2022-08-23T05:42:13.371Z,81.90
2022-08-23T05:44:41.481Z,81.30
2022-08-23T05:47:13.491Z,80.50
2022-08-23T05:50:02.051Z,80.60
2022-08-23T05:52:33.314Z,80.20
2022-08-23T05:55:01.090Z,79.80
2022-08-23T05:57:41.030Z,79.70
2022-08-23T06:00:14.506Z,78.90
2022-08-23T06:02:50.661Z,79.40
2022-08-23T06:05:20.689Z,79.10
2022-08-23T06:07:52.015Z,79.00
2022-08-23T06:10:22.361Z,78.60
2022-08-23T06:12:59.157Z,79.10
2022-08-23T06:15:26.616Z,79.40
2022-08-23T06:17:54.154Z,78.40
2022-08-23T06:20:21.795Z,77.70
2022-08-23T06:22:58.377Z,76.60
2022-08-23T06:25:25.899Z,76.40
2022-08-23T06:28:00.077Z,76.50
2022-08-23T06:30:30.417Z,74.40
2022-08-23T06:33:05.038Z,75.10
2022-08-23T06:35:39.943Z,73.80
2022-08-23T06:38:15.899Z,73.70
2022-08-23T06:41:08.311Z,72.50
2022-08-23T06:44:01.751Z,72.20
2022-08-23T06:46:34.335Z,71.50
2022-08-23T06:49:05.530Z,70.50
2022-08-23T06:51:43.598Z,69.40
2022-08-23T06:54:26.474Z,68.20
2022-08-23T06:57:09.426Z,67.50
2022-08-23T06:59:56.912Z,66.70
2022-08-23T07:02:45.869Z,66.10
2022-08-23T07:05:36.164Z,65.70
2022-08-23T07:08:17.899Z,64.40
2022-08-23T07:10:45.521Z,64.10
2022-08-23T07:13:16.924Z,63.00
2022-08-23T07:15:50.242Z,62.60
2022-08-23T07:18:20.296Z,61.40
2022-08-23T07:20:47.744Z,60.90
2022-08-23T07:23:15.996Z,60.50
2022-08-23T07:25:44.121Z,60.00
2022-08-23T07:28:16.590Z,58.60
2022-08-23T07:30:45.474Z,59.20
2022-08-23T07:33:14.923Z,58.20
2022-08-23T07:36:09.910Z,58.00
2022-08-23T07:38:39.640Z,55.60
2022-08-23T07:41:07.725Z,56.30
2022-08-23T07:43:36.177Z,55.90
2022-08-23T07:46:04.406Z,56.30
2022-08-23T07:48:52.948Z,55.60
2022-08-23T08:41:44.236Z,47.90
2022-08-23T08:44:31.153Z,46.50
2022-08-23T08:46:59.564Z,47.70
2022-08-23T08:49:44.884Z,46.40
2022-08-23T08:52:20.697Z,46.70
2022-08-23T08:54:53.257Z,45.90
2022-08-23T08:57:27.706Z,45.70
2022-08-23T09:00:15.032Z,45.20
2022-08-23T09:02:45.602Z,44.40
2022-08-23T09:05:39.939Z,43.30
2022-08-23T09:08:37.480Z,43.70
2022-08-23T09:11:23.783Z,43.10
2022-08-23T09:14:30.350Z,43.10
2022-08-23T09:17:14.651Z,41.90
2022-08-23T09:19:42.880Z,42.40
2022-08-23T09:22:19.571Z,42.40
2022-08-23T09:24:46.871Z,41.70
2022-08-23T09:27:21.905Z,41.70
2022-08-23T09:30:01.370Z,40.30
2022-08-23T09:32:42.285Z,41.00
2022-08-23T09:35:21.862Z,40.60
2022-08-23T09:38:03.865Z,40.40
2022-08-23T09:43:19.484Z,40.10
2022-08-23T09:45:50.024Z,40.00
2022-08-23T09:48:41.354Z,39.00
2022-08-23T09:51:26.304Z,36.50
2022-08-23T09:54:34.163Z,37.00
2022-08-23T09:57:09.849Z,39.50
2022-08-23T09:59:51.975Z,40.50
2022-08-23T10:02:35.436Z,37.90
2022-08-23T10:05:39.291Z,37.20
2022-08-23T10:08:23.527Z,39.80
2022-08-23T10:11:03.294Z,39.20
2022-08-23T10:13:33.706Z,37.30
2022-08-23T10:16:10.439Z,37.70
2022-08-23T10:19:18.332Z,38.30
2022-08-23T10:22:14.824Z,37.90
2022-08-23T10:25:00.709Z,36.00
2022-08-23T10:28:11.377Z,37.70
2022-08-23T10:31:11.435Z,35.80
2022-08-23T10:34:21.245Z,35.00
2022-08-23T10:37:17.381Z,34.80
2022-08-23T10:40:16.233Z,36.20
2022-08-23T10:43:09.675Z,32.80
2022-08-23T10:45:41.885Z,31.60
2022-08-23T10:48:29.925Z,31.30
2022-08-23T10:51:22.634Z,32.00
2022-08-23T10:54:10.363Z,32.00
2022-08-23T10:56:44.456Z,34.00
2022-08-23T10:59:24.491Z,32.30
2022-08-23T11:02:12.663Z,31.90
2022-08-23T11:04:49.473Z,30.90
2022-08-23T11:07:38.093Z,33.50
2022-08-23T11:10:26.830Z,32.00
2022-08-23T11:13:15.934Z,32.80
2022-08-23T11:16:13.665Z,30.30
2022-08-23T11:18:50.825Z,30.70
2022-08-23T11:21:31.220Z,31.40
2022-08-23T11:24:03.183Z,29.20
2022-08-23T11:26:36.353Z,29.10
2022-08-23T11:29:07.029Z,30.10
2022-08-23T11:32:00.888Z,28.80
2022-08-23T11:34:33.947Z,28.30
2022-08-23T11:37:30.954Z,28.40
2022-08-23T11:40:08.984Z,28.00
2022-08-23T11:42:37.859Z,28.00
2022-08-23T11:45:24.028Z,27.70
2022-08-23T11:48:14.257Z,28.30
2022-08-23T11:51:22.174Z,29.00
2022-08-23T11:53:58.167Z,28.10
2022-08-23T11:57:15.525Z,28.40
2022-08-23T12:00:06.065Z,28.80
2022-08-23T12:02:39.104Z,31.50
2022-08-23T12:05:32.535Z,30.00
2022-08-23T12:08:03.415Z,29.00
2022-08-23T12:10:43.177Z,30.00
2022-08-23T12:13:22.604Z,27.10
2022-08-23T12:16:24.285Z,28.60
2022-08-23T12:18:53.576Z,25.70
2022-08-23T12:21:51.555Z,26.00
2022-08-23T12:24:47.383Z,26.20
2022-08-23T12:27:59.284Z,28.00
2022-08-23T12:30:42.893Z,28.20
2022-08-23T12:33:36.905Z,28.40
2022-08-23T12:36:33.864Z,28.70
2022-08-23T12:39:09.169Z,27.00
2022-08-23T12:42:14.032Z,25.40
2022-08-23T12:44:46.873Z,25.60
2022-08-23T12:47:21.263Z,25.80
2022-08-23T12:50:02.001Z,27.00
2022-08-23T12:52:35.134Z,28.30
2022-08-23T12:55:03.336Z,26.30
2022-08-23T12:57:42.479Z,28.60
2022-08-23T13:00:33.840Z,26.60
2022-08-23T13:03:06.429Z,27.40
2022-08-23T13:05:49.397Z,28.00
2022-08-23T13:08:35.244Z,25.30
2022-08-23T13:11:08.689Z,25.90
2022-08-23T13:13:42.959Z,25.50
2022-08-23T13:16:42.414Z,24.80
2022-08-23T13:19:33.970Z,23.80
2022-08-23T13:22:29.824Z,25.10
2022-08-23T13:25:39.565Z,24.00
2022-08-23T13:28:23.847Z,26.20
2022-08-23T13:31:11.265Z,24.70
2022-08-23T13:33:40.933Z,26.20
2022-08-23T13:36:13.363Z,25.70
2022-08-23T13:38:43.579Z,24.30
2022-08-23T13:41:38.988Z,24.60
2022-08-23T13:44:12.744Z,24.30
2022-08-23T13:46:48.178Z,25.20
2022-08-23T13:49:28.714Z,23.90
2022-08-23T13:54:52.939Z,26.20
2022-08-23T13:57:22.308Z,25.10
2022-08-23T13:59:54.896Z,24.00
2022-08-23T14:02:24.345Z,23.90
2022-08-23T14:04:52.516Z,24.40
2022-08-23T14:07:20.424Z,23.80
2022-08-23T14:09:50.994Z,23.30
2022-08-23T14:12:27.740Z,23.70
2022-08-23T14:14:57.390Z,23.80
2022-08-23T14:17:25.342Z,23.60
2022-08-23T14:22:41.261Z,23.90
2022-08-23T14:25:10.734Z,24.70
2022-08-23T14:27:41.548Z,24.20
2022-08-23T14:30:16.812Z,24.30
2022-08-23T14:32:44.445Z,24.80
2022-08-23T14:35:11.897Z,25.50
2022-08-23T14:40:27.250Z,26.30
2022-08-23T14:42:55.258Z,25.90
2022-08-23T14:45:22.984Z,25.30
2022-08-23T14:47:50.756Z,25.80
2022-08-23T14:50:18.304Z,25.50
2022-08-23T14:52:47.687Z,24.50
2022-08-23T14:55:15.863Z,24.20
2022-08-23T14:57:44.140Z,24.20
2022-08-23T15:00:14.986Z,24.80
2022-08-23T15:02:47.217Z,25.20
2022-08-23T15:05:15.940Z,25.30
2022-08-23T15:07:43.932Z,26.40
2022-08-23T15:10:49.719Z,26.00
2022-08-23T15:13:19.160Z,25.00
2022-08-23T15:15:49.282Z,26.20
2022-08-23T15:18:18.273Z,24.70
2022-08-23T15:20:46.235Z,25.90
2022-08-23T15:23:14.484Z,26.40
2022-08-23T15:25:44.066Z,26.70
2022-08-23T15:28:16.531Z,25.80
2022-08-23T15:30:45.819Z,26.10
2022-08-23T15:33:13.798Z,26.70
2022-08-23T15:35:49.926Z,26.80
2022-08-23T15:38:20.538Z,26.20
2022-08-23T15:40:51.607Z,26.90
2022-08-23T15:43:20.729Z,27.50
2022-08-23T16:15:24.146Z,30.30
2022-08-23T16:17:51.527Z,30.50
2022-08-23T16:20:18.926Z,30.30
2022-08-23T16:22:46.352Z,30.20
2022-08-23T16:25:13.958Z,30.20
2022-08-23T16:27:41.734Z,30.30
2022-08-23T16:30:12.574Z,30.50
2022-08-23T16:32:41.218Z,30.30
2022-08-23T16:35:09.818Z,30.90
2022-08-23T16:37:37.149Z,31.10
2022-08-23T16:40:09.882Z,31.70
2022-08-23T16:42:37.414Z,31.90
2022-08-23T16:45:05.664Z,31.90
2022-08-23T16:47:40.335Z,32.10
2022-08-23T16:52:37.919Z,31.40
2022-08-23T16:55:09.941Z,32.60
2022-08-23T16:57:37.662Z,32.50
2022-08-23T17:00:08.214Z,33.00
2022-08-23T17:02:37.012Z,33.40
2022-08-23T17:05:13.501Z,33.30
2022-08-23T17:07:41.216Z,33.10
2022-08-23T17:10:11.107Z,33.90
2022-08-23T17:12:46.912Z,34.10
2022-08-23T17:15:20.397Z,33.70
2022-08-23T17:17:49.171Z,33.90
2022-08-23T17:20:19.423Z,34.30
2022-08-23T17:22:47.854Z,34.50
2022-08-23T17:25:17.209Z,34.40
2022-08-23T17:27:46.515Z,34.30
2022-08-23T17:30:18.254Z,34.50
2022-08-23T17:32:49.653Z,35.10
2022-08-23T17:35:22.184Z,34.80
2022-08-23T17:37:49.802Z,35.20
2022-08-23T17:40:35.240Z,35.40
2022-08-23T17:43:03.720Z,35.70
2022-08-23T17:45:46.563Z,35.90
2022-08-23T17:48:16.856Z,36.10
2022-08-23T17:50:46.421Z,36.50
2022-08-23T17:53:15.752Z,36.90
2022-08-23T17:55:44.248Z,37.30
2022-08-23T17:58:13.668Z,37.50
2022-08-23T18:00:41.279Z,37.80
2022-08-23T18:03:08.884Z,38.00
2022-08-23T18:05:40.184Z,38.30
2022-08-23T18:08:08.646Z,38.80
2022-08-23T18:10:37.143Z,39.10
2022-08-23T18:13:05.450Z,39.50
2022-08-23T18:15:33.147Z,39.70
2022-08-23T18:18:02.621Z,40.00
2022-08-23T18:20:30.970Z,40.10
2022-08-23T18:22:59.548Z,40.40
2022-08-23T18:25:28.064Z,40.70
2022-08-23T18:28:07.086Z,41.10
2022-08-23T18:30:47.078Z,41.70
2022-08-23T18:55:59.481Z,45.70
2022-08-23T18:58:27.831Z,46.20
2022-08-23T19:00:56.846Z,46.70
2022-08-23T19:03:24.478Z,47.30
2022-08-23T19:05:52.492Z,47.20
2022-08-23T19:08:20.308Z,47.20
2022-08-23T19:10:48.055Z,47.60
2022-08-23T19:13:16.021Z,47.60
2022-08-23T19:15:43.749Z,47.90
2022-08-23T19:18:11.362Z,47.90
2022-08-23T19:20:39.103Z,48.50
2022-08-23T19:23:06.720Z,48.70
2022-08-23T19:25:37.298Z,49.00
2022-08-23T19:28:06.364Z,49.00
2022-08-23T19:30:33.990Z,48.70
2022-08-23T19:33:01.693Z,48.60
2022-08-23T19:40:05.598Z,49.20
2022-08-23T19:42:37.146Z,49.30
2022-08-23T19:45:06.487Z,49.20
2022-08-23T19:47:35.167Z,49.80
2022-08-23T19:50:05.247Z,49.80
2022-08-23T19:52:33.642Z,50.10
2022-08-23T19:55:05.352Z,50.90
2022-08-23T19:57:35.393Z,51.20
2022-08-23T20:00:10.531Z,50.70
2022-08-23T20:02:38.136Z,50.90
2022-08-23T20:05:07.083Z,51.40
2022-08-23T20:07:36.362Z,51.60
2022-08-23T20:10:06.077Z,52.00
2022-08-23T20:12:34.084Z,52.10
2022-08-23T20:15:02.602Z,52.90
2022-08-23T20:17:30.262Z,53.00
2022-08-23T20:19:58.268Z,53.30
2022-08-23T20:22:44.538Z,53.30
2022-08-23T20:25:12.120Z,53.50
2022-08-23T20:27:39.651Z,53.40
2022-08-23T20:30:08.938Z,53.70
2022-08-23T20:32:37.620Z,53.90
2022-08-23T20:35:08.387Z,54.60
2022-08-23T20:37:36.203Z,54.60
2022-08-23T20:40:06.203Z,54.90
2022-08-23T20:42:33.698Z,55.50
2022-08-23T20:45:05.933Z,55.10
2022-08-23T20:47:33.808Z,55.20
2022-08-23T20:50:01.530Z,55.90
2022-08-23T20:52:34.024Z,56.00
2022-08-23T20:55:02.873Z,56.30
2022-08-23T20:57:31.975Z,56.10
2022-08-23T21:00:08.357Z,56.50
2022-08-23T21:02:35.916Z,56.40
2022-08-23T21:05:04.704Z,56.50
2022-08-23T21:07:34.490Z,56.80
2022-08-23T21:10:05.144Z,57.10
2022-08-23T21:12:32.702Z,57.60
2022-08-23T21:15:00.319Z,58.10
2022-08-23T21:17:27.945Z,58.30
2022-08-23T21:19:55.479Z,58.60
2022-08-23T21:22:23.158Z,59.10
2022-08-23T21:24:59.575Z,59.60
2022-08-23T21:27:27.816Z,59.90
2022-08-23T21:29:55.379Z,60.10
2022-08-23T21:32:23.688Z,60.10
2022-08-23T21:34:51.238Z,60.80
2022-08-23T21:37:18.932Z,61.30
2022-08-23T21:39:46.586Z,61.80
2022-08-23T21:42:15.444Z,62.10
2022-08-23T21:44:43.582Z,62.50
2022-08-23T21:47:11.335Z,62.40
2022-08-23T21:49:39.274Z,62.20
2022-08-23T21:52:07.814Z,62.30
2022-08-23T21:54:36.199Z,61.90
2022-08-23T21:57:05.461Z,61.90
2022-08-23T21:59:33.243Z,61.70
2022-08-23T22:02:00.823Z,61.90
2022-08-23T22:04:28.454Z,62.10
2022-08-23T22:06:59.939Z,61.80
2022-08-23T22:09:31.550Z,61.70
2022-08-23T22:12:34.319Z,61.90
2022-08-23T22:15:02.121Z,62.30
2022-08-23T22:17:29.958Z,62.80
2022-08-23T22:19:57.759Z,63.00
2022-08-23T22:22:25.346Z,63.10
2022-08-23T22:24:54.203Z,63.20
2022-08-23T22:27:21.792Z,63.50
2022-08-23T22:29:49.309Z,63.80
2022-08-23T22:32:16.979Z,63.10
2022-08-23T22:34:44.651Z,62.80
2022-08-23T22:37:12.525Z,62.50
2022-08-23T22:39:40.079Z,63.30
2022-08-23T22:42:09.393Z,63.70
2022-08-23T22:44:37.770Z,64.00
2022-08-23T22:47:05.662Z,63.40
2022-08-23T22:49:33.307Z,64.20
2022-08-23T22:52:01.125Z,64.10
2022-08-23T22:54:29.031Z,64.50
2022-08-23T22:56:56.632Z,64.70
2022-08-23T22:59:32.768Z,64.50
2022-08-23T23:02:03.243Z,65.10
2022-08-23T23:04:32.629Z,65.00
2022-08-23T23:07:00.545Z,64.60
2022-08-23T23:09:28.551Z,64.30
2022-08-23T23:11:56.651Z,64.50
2022-08-23T23:14:24.446Z,64.60
2022-08-23T23:16:53.533Z,65.30
2022-08-23T23:19:39.680Z,65.70
2022-08-23T23:22:09.361Z,65.60
2022-08-23T23:24:40.246Z,65.80
2022-08-23T23:27:08.494Z,66.40
2022-08-23T23:29:36.772Z,66.00
2022-08-23T23:32:05.264Z,66.50
2022-08-23T23:34:32.860Z,66.50
2022-08-23T23:37:00.638Z,66.70
2022-08-23T23:39:29.182Z,66.80
2022-08-23T23:41:57.567Z,67.20
2022-08-23T23:44:29.928Z,67.50
2022-08-23T23:47:01.560Z,67.60
2022-08-23T23:49:32.636Z,67.20
2022-08-23T23:52:06.036Z,67.70
2022-08-23T23:54:35.914Z,68.00
2022-08-23T23:57:44.577Z,68.40
